Time;durP1;ratioP1;P1;durP2;ratioP2;P2;SDS_P1;SDS_P2;PMS_P1;PMS_P2;Temp;Humidity;BMP_temperature;BMP_pressure;BME280_temperature;BME280_humidity;BME280_pressure;Samples;Min_cycle;Max_cycle;Signal;HPM_P1;HPM_P2
2023/02/11 00:02:31;;;;;;;36.00;19.40;;;;;;;-3.29;77.34;98218.93;109073;1265;22521;-81
2023/02/11 00:05:04;;;;;;;25.10;14.30;;;;;;;-3.31;77.75;98217.72;108942;1269;294647;-81
2023/02/11 00:07:35;;;;;;;34.70;17.70;;;;;;;-3.30;77.85;98223.49;109156;1251;22555;-81
2023/02/11 00:10:07;;;;;;;26.30;14.80;;;;;;;-3.29;77.89;98232.44;109116;1273;22539;-81
2023/02/11 00:12:39;;;;;;;34.20;16.50;;;;;;;-3.31;77.68;98232.20;109161;1273;23754;-81
2023/02/11 00:15:11;;;;;;;33.00;17.30;;;;;;;-3.32;77.71;98228.21;109114;1273;22541;-81
2023/02/11 00:17:43;;;;;;;29.00;15.70;;;;;;;-3.34;77.70;98229.42;109088;1263;35306;-81
2023/02/11 00:20:14;;;;;;;34.10;19.10;;;;;;;-3.37;77.81;98235.41;109095;1266;22561;-81
2023/02/11 00:22:45;;;;;;;26.70;14.50;;;;;;;-3.41;77.75;98235.13;109092;1272;22858;-81
2023/02/11 00:25:16;;;;;;;32.90;18.00;;;;;;;-3.44;77.80;98232.66;109075;1265;22516;-81
2023/02/11 00:27:47;;;;;;;29.40;17.10;;;;;;;-3.49;77.79;98233.52;109063;1272;47122;-81
2023/02/11 00:30:20;;;;;;;37.30;19.90;;;;;;;-3.57;77.78;98232.19;109144;1270;22520;-81
2023/02/11 00:32:51;;;;;;;29.40;16.50;;;;;;;-3.65;77.89;98226.26;109222;1272;22527;-81
2023/02/11 00:35:22;;;;;;;37.80;21.40;;;;;;;-3.70;78.22;98222.38;109141;1273;23998;-81
2023/02/11 00:37:54;;;;;;;39.20;23.30;;;;;;;-3.76;78.15;98221.46;109074;1272;58746;-81
2023/02/11 00:40:26;;;;;;;40.20;24.00;;;;;;;-3.81;78.49;98220.51;109136;1273;24993;-81
2023/02/11 00:42:57;;;;;;;35.60;21.00;;;;;;;-3.82;78.79;98214.95;109229;1273;22503;-81
2023/02/11 00:45:29;;;;;;;31.70;16.90;;;;;;;-3.81;79.08;98206.38;109079;1273;22524;-81
2023/02/11 00:48:03;;;;;;;34.50;16.80;;;;;;;-3.79;79.44;98200.36;109092;1272;48858;-81
2023/02/11 00:50:34;;;;;;;30.10;16.40;;;;;;;-3.82;79.29;98189.75;109122;1273;22837;-81
2023/02/11 00:53:06;;;;;;;31.60;18.80;;;;;;;-3.91;79.26;98182.79;109106;1273;22534;-81
2023/02/11 00:55:37;;;;;;;30.20;14.20;;;;;;;-3.98;79.30;98177.98;109110;1265;22517;-81
2023/02/11 00:58:11;;;;;;;29.40;15.60;;;;;;;-4.03;79.29;98176.77;109015;1269;106876;-81
2023/02/11 01:00:43;;;;;;;22.70;13.40;;;;;;;-4.04;79.32;98174.90;109129;1273;24254;-81
2023/02/11 01:03:18;;;;;;;29.30;15.80;;;;;;;-4.00;79.47;98170.55;109102;1270;22518;-81
2023/02/11 01:05:50;;;;;;;29.60;17.60;;;;;;;-3.98;79.15;98175.42;109055;1273;22533;-80
2023/02/11 01:08:22;;;;;;;23.00;14.30;;;;;;;-4.02;79.02;98167.83;109007;1266;62786;-81
2023/02/11 01:10:58;;;;;;;32.10;19.70;;;;;;;-4.08;78.83;98167.02;109062;1273;22488;-81
2023/02/11 01:13:30;;;;;;;23.30;13.00;;;;;;;-4.11;78.82;98160.95;109138;1265;23696;-81
2023/02/11 01:16:01;;;;;;;26.80;14.70;;;;;;;-4.13;79.02;98156.80;109023;1273;22549;-81
2023/02/11 01:18:32;;;;;;;24.20;14.00;;;;;;;-4.13;79.02;98160.29;109005;1273;73214;-81
2023/02/11 01:21:04;;;;;;;33.10;17.20;;;;;;;-4.11;79.13;98153.90;109084;1270;22528;-80
2023/02/11 01:23:37;;;;;;;29.40;15.30;;;;;;;-4.11;78.99;98149.40;109097;1266;23785;-80
2023/02/11 01:26:08;;;;;;;25.70;16.10;;;;;;;-4.13;78.90;98144.27;109102;1273;23777;-80
2023/02/11 01:28:40;;;;;;;25.80;14.40;;;;;;;-4.17;78.80;98134.98;109029;1273;79905;-80
2023/02/11 01:31:11;;;;;;;36.70;20.10;;;;;;;-4.19;78.92;98132.67;109100;1273;22593;-80
2023/02/11 01:33:42;;;;;;;23.10;13.20;;;;;;;-4.16;79.14;98130.23;109065;1273;22554;-80
2023/02/11 01:36:14;;;;;;;26.00;13.30;;;;;;;-4.14;78.89;98125.46;109151;1273;22545;-80
2023/02/11 01:38:45;;;;;;;27.80;13.10;;;;;;;-4.11;79.11;98118.15;109010;1273;111632;-80
2023/02/11 01:41:16;;;;;;;25.30;15.10;;;;;;;-4.09;78.97;98108.98;109107;1273;24268;-80
2023/02/11 01:43:53;;;;;;;32.40;19.10;;;;;;;-4.10;78.96;98106.13;109111;1269;22570;-80
2023/02/11 01:46:34;;;;;;;24.80;14.80;;;;;;;-4.09;78.86;98094.96;109076;1273;22587;-80
2023/02/11 01:49:12;;;;;;;28.00;16.50;;;;;;;-4.13;78.72;98089.48;109000;1267;66178;-80
2023/02/11 01:51:47;;;;;;;31.00;18.80;;;;;;;-4.15;78.92;98087.84;109060;1270;22486;-80
2023/02/11 01:57:23;;;;;;;29.60;17.80;;;;;;;-4.13;79.04;98079.52;109017;1273;22531;-80
2023/02/11 02:00:11;;;;;;;35.10;19.60;;;;;;;-4.18;79.06;98075.98;107542;1273;2076628;-80
2023/02/11 02:02:48;;;;;;;37.10;20.50;;;;;;;-4.14;79.17;98074.77;109061;1273;22561;-80
2023/02/11 02:05:31;;;;;;;25.80;15.60;;;;;;;-4.20;79.03;98070.65;109070;1273;25456;-80
2023/02/11 02:08:10;;;;;;;32.00;19.90;;;;;;;-4.17;79.39;98066.66;109000;1273;78643;-80
2023/02/11 02:10:43;;;;;;;;;;;;;;;-4.19;79.21;98077.00;109086;1273;22528;-80
2023/02/11 02:13:14;;;;;;;32.40;18.40;;;;;;;-4.23;79.18;98077.81;109101;1273;22592;-81
2023/02/11 02:15:51;;;;;;;30.00;17.30;;;;;;;-4.21;79.24;98073.17;109105;1273;22564;-80
2023/02/11 02:18:42;;;;;;;22.50;13.40;;;;;;;-4.22;79.10;98072.08;109009;1269;51635;-81
2023/02/11 02:21:43;;;;;;;25.50;13.60;;;;;;;-4.24;79.41;98065.80;109014;1273;24157;-81
2023/02/11 02:24:40;;;;;;;33.40;19.80;;;;;;;-4.23;79.24;98060.77;109052;1273;24811;-80
2023/02/11 02:27:29;;;;;;;20.50;11.80;;;;;;;-4.29;79.17;98052.86;109064;1265;22631;-81
2023/02/11 02:30:37;;;;;;;23.80;12.80;;;;;;;-4.29;79.30;98046.33;109075;1272;46002;-80
2023/02/11 02:33:21;;;;;;;24.50;13.80;;;;;;;-4.28;79.52;98039.80;108958;1273;22580;-81
2023/02/11 02:36:09;;;;;;;28.50;15.80;;;;;;;-4.24;79.39;98030.27;109169;1273;25424;-80
2023/02/11 02:38:48;;;;;;;21.40;10.70;;;;;;;-4.20;79.55;98036.31;109069;1272;37025;-80
2023/02/11 02:41:20;;;;;;;;;;;;;;;-4.19;79.48;98022.92;109205;1273;22540;-80
2023/02/11 02:43:52;;;;;;;30.50;16.20;;;;;;;-4.16;79.58;98025.39;109149;1273;23737;-81
2023/02/11 02:46:26;;;;;;;30.40;18.60;;;;;;;-4.19;79.32;98024.09;109101;1273;22577;-80
2023/02/11 02:48:58;;;;;;;28.20;16.60;;;;;;;-4.20;79.23;98021.59;109014;1273;42428;-80
2023/02/11 02:51:59;;;;;;;26.00;14.70;;;;;;;-4.21;79.26;98017.02;109082;1250;22562;-80
2023/02/11 02:55:14;;;;;;;24.50;12.00;;;;;;;-4.22;79.32;98020.92;109091;1265;22525;-80
2023/02/11 02:58:05;;;;;;;23.80;12.60;;;;;;;-4.24;79.23;98020.79;109058;1273;26685;-81
2023/02/11 03:00:48;;;;;;;26.90;15.80;;;;;;;-4.26;79.23;98021.69;109147;1273;22531;-80
2023/02/11 03:03:30;;;;;;;33.70;16.20;;;;;;;-4.26;79.40;98025.44;109130;1265;22510;-80
2023/02/11 03:06:08;;;;;;;33.40;17.90;;;;;;;-4.23;79.47;98028.47;109129;1273;22534;-80
2023/02/11 03:08:46;;;;;;;26.60;14.00;;;;;;;-4.24;79.32;98027.72;109150;1265;23009;-80
2023/02/11 03:11:21;;;;;;;28.70;13.90;;;;;;;-4.26;79.39;98026.13;109103;1273;22552;-80
2023/02/11 03:13:57;;;;;;;30.60;17.10;;;;;;;-4.24;79.45;98032.05;109112;1270;22554;-80
2023/02/11 03:16:34;;;;;;;24.20;14.00;;;;;;;-4.22;79.57;98027.90;109082;1266;22468;-80
2023/02/11 03:19:11;;;;;;;25.50;14.50;;;;;;;-4.21;79.65;98022.10;109113;1268;25269;-80
2023/02/11 03:21:44;;;;;;;25.80;16.30;;;;;;;-4.17;79.64;98023.09;109122;1265;25277;-80
2023/02/11 03:24:21;;;;;;;25.50;15.20;;;;;;;-4.14;79.76;98025.21;109034;1273;22557;-81
2023/02/11 03:27:00;;;;;;;24.10;14.10;;;;;;;-4.10;79.76;98020.86;109153;1273;23158;-80
2023/02/11 03:29:50;;;;;;;31.20;18.20;;;;;;;-4.07;79.78;98019.52;109181;1250;23925;-80
2023/02/11 03:32:30;;;;;;;29.50;16.30;;;;;;;-4.06;79.69;98015.57;109262;1269;22474;-80
2023/02/11 03:35:10;;;;;;;30.30;17.90;;;;;;;-4.05;79.62;98014.80;109228;1272;24034;-80
2023/02/11 03:37:50;;;;;;;26.10;15.60;;;;;;;-4.05;79.65;98010.85;109304;1272;22474;-80
2023/02/11 03:40:25;;;;;;;27.10;15.50;;;;;;;-4.03;79.63;98009.83;109100;1265;25342;-80
2023/02/11 03:43:02;;;;;;;33.00;18.40;;;;;;;-4.00;79.90;98008.25;109074;1273;22530;-80
2023/02/11 03:45:36;;;;;;;33.90;19.50;;;;;;;-3.98;79.82;97997.22;109138;1273;22475;-81
2023/02/11 03:48:15;;;;;;;32.60;19.90;;;;;;;-3.97;79.90;97979.61;109099;1272;23356;-80
2023/02/11 03:50:56;;;;;;;23.30;14.30;;;;;;;-3.95;79.95;97968.89;109100;1273;22565;-80
2023/02/11 03:53:33;;;;;;;30.20;17.60;;;;;;;-3.85;80.20;97946.66;109066;1273;22516;-80
2023/02/11 03:56:11;;;;;;;25.70;13.60;;;;;;;-3.79;80.26;97920.00;109132;1273;22588;-81
2023/02/11 03:58:44;;;;;;;32.30;15.90;;;;;;;-3.73;80.50;97907.04;109034;1273;23505;-80
2023/02/11 04:01:15;;;;;;;30.30;14.90;;;;;;;-3.69;80.46;97902.33;109154;1273;24200;-80
2023/02/11 04:03:49;;;;;;;30.40;16.70;;;;;;;-3.65;80.65;97905.45;109134;1265;22523;-81
2023/02/11 04:06:23;;;;;;;24.70;12.60;;;;;;;-3.57;80.92;97881.24;109233;1266;23823;-80
2023/02/11 04:08:54;;;;;;;25.50;15.20;;;;;;;-3.50;81.13;97873.46;107513;1273;2162928;-80
2023/02/11 04:11:27;;;;;;;16.90;9.60;;;;;;;-3.46;80.98;97865.66;109089;1266;22556;-81
2023/02/11 04:13:59;;;;;;;28.10;16.80;;;;;;;-3.39;81.39;97835.98;109021;1268;22588;-80
2023/02/11 04:16:35;;;;;;;26.50;14.40;;;;;;;-3.31;81.41;97850.27;109108;1265;22528;-81
2023/02/11 04:19:08;;;;;;;21.60;12.50;;;;;;;-3.26;81.34;97844.02;109020;1266;63714;-81
2023/02/11 04:21:41;;;;;;;26.90;13.80;;;;;;;-3.20;81.38;97839.59;109100;1266;22598;-81
2023/02/11 04:24:20;;;;;;;20.90;12.80;;;;;;;-3.15;81.47;97819.36;109119;1273;25259;-81
2023/02/11 04:26:54;;;;;;;22.40;14.10;;;;;;;-3.13;81.38;97824.23;109152;1267;23140;-81
2023/02/11 04:29:28;;;;;;;20.40;12.50;;;;;;;-3.10;81.47;97814.15;109067;1272;35735;-81
2023/02/11 04:32:01;;;;;;;24.00;14.10;;;;;;;-3.08;81.50;97813.36;109111;1266;22554;-82
2023/02/11 04:34:37;;;;;;;23.20;13.50;;;;;;;-3.05;81.33;97808.95;109106;1273;24216;-81
2023/02/11 04:37:12;;;;;;;24.60;14.30;;;;;;;-3.01;81.65;97798.73;109104;1273;23219;-81
2023/02/11 04:39:43;;;;;;;24.90;13.90;;;;;;;-2.94;81.62;97789.82;109009;1273;82724;-81
2023/02/11 04:42:18;;;;;;;26.00;14.50;;;;;;;-2.87;81.72;97778.84;109120;1266;22524;-81
2023/02/11 04:44:50;;;;;;;17.80;10.70;;;;;;;-2.81;81.70;97780.91;109089;1262;22637;-81
2023/02/11 04:47:21;;;;;;;26.20;13.50;;;;;;;-2.75;81.66;97781.45;109126;1273;22583;-80
2023/02/11 04:49:54;;;;;;;22.70;13.10;;;;;;;-2.70;81.47;97788.58;109070;1266;47638;-80
2023/02/11 04:52:25;;;;;;;18.60;10.70;;;;;;;-2.67;81.40;97794.34;109079;1273;22545;-81
2023/02/11 04:54:56;;;;;;;22.30;12.20;;;;;;;-2.64;81.27;97792.82;109065;1273;25547;-81
2023/02/11 04:57:28;;;;;;;22.70;11.20;;;;;;;-2.56;81.35;97795.84;109090;1273;23971;-81
2023/02/11 05:00:01;;;;;;;25.50;14.40;;;;;;;-2.53;81.11;97785.01;109067;1273;45733;-81
2023/02/11 05:02:33;;;;;;;23.10;13.20;;;;;;;-2.53;80.86;97793.96;109123;1265;22571;-81
2023/02/11 05:05:07;;;;;;;22.30;12.80;;;;;;;-2.51;80.95;97806.91;109108;1272;22531;-81
2023/02/11 05:07:41;;;;;;;19.50;10.70;;;;;;;-2.47;80.95;97808.91;109105;1273;22537;-81
2023/02/11 05:10:12;;;;;;;22.20;12.60;;;;;;;-2.43;80.83;97813.70;109056;1265;31355;-81
2023/02/11 05:12:44;;;;;;;21.80;13.40;;;;;;;-2.43;80.58;97817.74;109116;1273;22588;-81
2023/02/11 05:15:15;;;;;;;18.70;10.80;;;;;;;-2.44;80.66;97818.44;109134;1273;22533;-81
2023/02/11 05:17:47;;;;;;;23.10;14.60;;;;;;;-2.44;80.58;97817.88;109118;1273;24309;-81
2023/02/11 05:20:18;;;;;;;24.50;12.50;;;;;;;-2.46;80.48;97803.90;109307;1272;22785;-81
2023/02/11 05:22:55;;;;;;;26.00;14.40;;;;;;;-2.48;80.40;97806.02;109268;1272;22540;-82
2023/02/11 05:25:26;;;;;;;23.90;14.00;;;;;;;-2.47;80.49;97800.02;109233;1264;22486;-82
2023/02/11 05:28:00;;;;;;;22.60;11.70;;;;;;;-2.47;80.45;97801.96;109200;1272;49575;-82
2023/02/11 05:30:34;;;;;;;23.80;15.40;;;;;;;-2.47;80.61;97804.33;109127;1273;22635;-82
2023/02/11 05:33:06;;;;;;;21.10;11.90;;;;;;;-2.45;80.50;97801.16;109126;1273;24275;-82
2023/02/11 05:35:37;;;;;;;21.30;12.80;;;;;;;-2.43;80.53;97808.11;109143;1273;22650;-83
2023/02/11 05:38:13;;;;;;;18.90;10.70;;;;;;;-2.42;80.61;97807.09;109040;1264;69689;-82
2023/02/11 05:40:47;;;;;;;28.10;13.80;;;;;;;-2.38;80.76;97806.71;109133;1265;22538;-82
2023/02/11 05:43:21;;;;;;;22.80;13.90;;;;;;;-2.35;80.79;97796.09;109093;1270;23025;-82
2023/02/11 05:45:52;;;;;;;21.10;13.40;;;;;;;-2.38;80.60;97797.56;109052;1273;22650;-82
2023/02/11 05:48:24;;;;;;;20.70;11.40;;;;;;;-2.37;80.71;97801.80;109094;1273;31985;-82
2023/02/11 05:50:55;;;;;;;20.00;12.40;;;;;;;-2.36;80.71;97794.89;109082;1265;22519;-82
2023/02/11 05:53:32;;;;;;;21.50;11.30;;;;;;;-2.32;80.63;97788.86;109085;1273;22579;-82
2023/02/11 05:56:05;;;;;;;20.70;12.60;;;;;;;-2.28;80.63;97779.42;109107;1266;24223;-82
2023/02/11 05:58:37;;;;;;;18.30;8.90;;;;;;;-2.26;80.60;97778.41;109026;1273;103781;-84
2023/02/11 06:01:16;;;;;;;19.00;12.10;;;;;;;-2.25;80.58;97773.39;109134;1273;25294;-81
2023/02/11 06:03:48;;;;;;;16.80;9.60;;;;;;;-2.22;80.58;97767.96;109138;1273;22497;-81
2023/02/11 06:06:20;;;;;;;19.20;9.60;;;;;;;-2.21;80.48;97779.86;109126;1273;22518;-82
2023/02/11 06:08:51;;;;;;;21.60;10.60;;;;;;;-2.19;80.57;97775.84;109110;1273;39601;-82
2023/02/11 06:11:22;;;;;;;20.10;9.80;;;;;;;-2.18;80.43;97787.86;109058;1272;24967;-82
2023/02/11 06:13:54;;;;;;;19.60;11.20;;;;;;;-2.18;80.31;97788.71;109105;1273;23826;-82
2023/02/11 06:16:25;;;;;;;24.30;13.40;;;;;;;-2.17;80.32;97783.61;109143;1272;22525;-81
2023/02/11 06:18:56;;;;;;;19.90;13.20;;;;;;;-2.15;80.33;97778.89;109058;1273;30981;-81
2023/02/11 06:21:27;;;;;;;18.60;10.80;;;;;;;-2.12;80.22;97782.02;109098;1270;25432;-81
2023/02/11 06:23:59;;;;;;;19.70;11.90;;;;;;;-2.10;80.28;97795.68;109083;1268;24165;-81
2023/02/11 06:26:35;;;;;;;21.50;12.80;;;;;;;-2.07;80.25;97807.12;109140;1265;25527;-82
2023/02/11 06:29:08;;;;;;;18.90;12.50;;;;;;;-2.01;80.40;97804.23;109064;1273;46803;-81
2023/02/11 06:31:40;;;;;;;21.20;12.90;;;;;;;-1.95;80.32;97808.92;109096;1273;22517;-81
2023/02/11 06:34:14;;;;;;;20.40;10.60;;;;;;;-1.93;80.09;97805.38;109104;1271;24242;-81
2023/02/11 06:36:49;;;;;;;21.90;13.30;;;;;;;-1.90;79.94;97803.02;109125;1266;22526;-81
2023/02/11 06:39:20;;;;;;;21.50;13.00;;;;;;;-1.90;79.81;97798.40;109062;1266;43462;-81
2023/02/11 06:41:52;;;;;;;18.00;9.90;;;;;;;-1.88;79.76;97788.67;109053;1260;22535;-81
2023/02/11 06:44:26;;;;;;;15.20;8.40;;;;;;;-1.85;79.77;97786.44;109094;1265;22592;-82
2023/02/11 06:46:58;;;;;;;17.00;8.80;;;;;;;-1.80;79.51;97776.11;109039;1265;24219;-82
2023/02/11 06:49:29;;;;;;;17.50;9.20;;;;;;;-1.75;79.39;97768.69;109048;1270;48487;-81
2023/02/11 06:52:03;;;;;;;17.50;10.30;;;;;;;-1.71;79.09;97764.45;109075;1266;22569;-82
2023/02/11 06:54:35;;;;;;;19.00;11.70;;;;;;;-1.67;79.10;97746.33;109106;1266;22594;-83
2023/02/11 06:57:06;;;;;;;19.30;11.80;;;;;;;-1.64;79.04;97728.61;109054;1271;22577;-81
2023/02/11 06:59:38;;;;;;;17.80;9.10;;;;;;;-1.61;79.05;97710.85;109066;1270;26824;-81
2023/02/11 07:02:10;;;;;;;16.80;9.10;;;;;;;-1.59;78.91;97694.25;109096;1271;22695;-81
2023/02/11 07:04:43;;;;;;;15.70;9.40;;;;;;;-1.55;78.89;97694.83;109113;1269;22528;-82
2023/02/11 07:07:15;;;;;;;16.90;9.30;;;;;;;-1.50;78.42;97697.21;109060;1274;22504;-81
2023/02/11 07:09:46;;;;;;;18.20;9.40;;;;;;;-1.44;78.48;97683.96;107719;1266;1781712;-81
2023/02/11 07:12:18;;;;;;;19.00;10.10;;;;;;;-1.41;78.37;97694.86;109073;1258;22484;-82
2023/02/11 07:14:53;;;;;;;28.20;11.50;;;;;;;-1.37;78.18;97688.90;109100;1273;23302;-82
2023/02/11 07:17:24;;;;;;;21.30;11.40;;;;;;;-1.35;78.28;97698.30;109086;1273;22555;-82
2023/02/11 07:19:56;;;;;;;15.50;10.70;;;;;;;-1.30;78.08;97695.77;109041;1265;56006;-82
2023/02/11 07:22:30;;;;;;;16.60;8.60;;;;;;;-1.23;77.93;97699.34;109056;1269;22634;-82
2023/02/11 07:25:03;;;;;;;20.30;11.70;;;;;;;-1.16;77.66;97689.05;109077;1266;22676;-81
2023/02/11 07:27:34;;;;;;;20.20;12.60;;;;;;;-1.09;77.48;97672.08;109095;1273;22544;-82
2023/02/11 07:30:11;;;;;;;16.40;9.70;;;;;;;-1.02;77.25;97655.73;109040;1269;52507;-82
2023/02/11 07:32:45;;;;;;;19.60;10.30;;;;;;;-0.90;77.04;97661.09;109133;1259;23702;-82
2023/02/11 07:35:19;;;;;;;18.60;10.40;;;;;;;-0.80;76.93;97664.64;109128;1273;23280;-82
2023/02/11 07:38:05;;;;;;;19.80;11.10;;;;;;;-0.75;76.48;97671.05;109105;1272;22520;-80
2023/02/11 07:40:38;;;;;;;17.50;9.00;;;;;;;-0.78;76.50;97676.79;109126;1269;25300;-78
2023/02/11 07:43:10;;;;;;;16.10;10.40;;;;;;;-0.80;76.30;97692.39;109088;1272;22825;-79
2023/02/11 07:45:42;;;;;;;19.20;10.70;;;;;;;-0.76;76.12;97682.73;109034;1272;22651;-79
2023/02/11 07:48:14;;;;;;;16.40;9.50;;;;;;;-0.70;75.99;97698.75;109041;1267;46745;-79
2023/02/11 07:50:47;;;;;;;19.10;10.70;;;;;;;-0.64;76.53;97704.23;109077;1269;22549;-79
2023/02/11 07:53:21;;;;;;;18.00;9.70;;;;;;;-0.56;76.10;97698.59;109019;1274;22518;-78
2023/02/11 07:55:55;;;;;;;13.50;8.30;;;;;;;-0.52;75.93;97703.41;109133;1273;24818;-80
2023/02/11 07:58:26;;;;;;;13.80;8.90;;;;;;;-0.47;75.50;97691.69;109126;1272;56602;-79
2023/02/11 08:01:03;;;;;;;17.20;9.80;;;;;;;-0.46;75.03;97681.80;109256;1271;22564;-79
2023/02/11 08:03:38;;;;;;;16.30;8.30;;;;;;;-0.42;74.90;97685.91;109179;1266;22561;-81
2023/02/11 08:06:15;;;;;;;17.00;9.20;;;;;;;-0.37;74.77;97679.88;109167;1272;22518;-79
2023/02/11 08:08:48;;;;;;;18.50;9.80;;;;;;;-0.34;74.55;97673.41;109125;1271;43952;-78
2023/02/11 08:11:23;;;;;;;15.80;9.60;;;;;;;-0.32;74.38;97670.55;109291;1271;25259;-79
2023/02/11 08:13:55;;;;;;;16.30;9.10;;;;;;;-0.31;74.74;97677.13;109233;1266;25899;-78
2023/02/11 08:16:28;;;;;;;17.10;11.40;;;;;;;-0.29;74.37;97671.94;109238;1272;22524;-80
2023/02/11 08:19:03;;;;;;;17.80;9.10;;;;;;;-0.28;74.35;97684.91;109132;1269;33345;-79
2023/02/11 08:21:38;;;;;;;16.30;8.30;;;;;;;-0.24;74.37;97693.22;109046;1273;24205;-79
2023/02/11 08:24:11;;;;;;;18.00;11.30;;;;;;;-0.18;73.73;97679.88;109025;1271;22696;-79
2023/02/11 08:26:42;;;;;;;14.90;8.30;;;;;;;-0.04;73.61;97685.59;109069;1273;22527;-79
2023/02/11 08:29:15;;;;;;;18.40;11.20;;;;;;;0.20;73.13;97695.25;109113;1271;33895;-80
2023/02/11 08:31:48;;;;;;;18.00;9.20;;;;;;;0.31;72.99;97697.41;109140;1273;22575;-79
2023/02/11 08:34:20;;;;;;;16.70;9.90;;;;;;;0.54;72.74;97691.27;109078;1270;24363;-81
2023/02/11 08:36:54;;;;;;;20.00;12.30;;;;;;;0.77;72.21;97692.06;109119;1272;22660;-81
2023/02/11 08:39:25;;;;;;;22.70;13.70;;;;;;;0.89;71.55;97694.20;109149;1269;64415;-81
2023/02/11 08:42:00;;;;;;;17.70;10.00;;;;;;;1.05;71.00;97693.63;109212;1272;25425;-80
2023/02/11 08:44:31;;;;;;;17.60;10.90;;;;;;;1.17;70.57;97686.71;109166;1266;22521;-81
2023/02/11 08:47:03;;;;;;;16.00;9.70;;;;;;;1.46;70.02;97682.17;109145;1268;24309;-80
2023/02/11 08:49:37;;;;;;;20.20;13.10;;;;;;;1.72;68.98;97679.19;109070;1268;52184;-80
2023/02/11 08:52:09;;;;;;;16.90;10.20;;;;;;;1.94;68.62;97681.48;109128;1273;22552;-80
2023/02/11 08:54:41;;;;;;;17.30;9.70;;;;;;;1.98;67.64;97676.79;109163;1272;23387;-80
2023/02/11 08:57:12;;;;;;;18.40;10.70;;;;;;;2.00;67.52;97685.08;109176;1273;22671;-80
2023/02/11 08:59:45;;;;;;;20.20;13.30;;;;;;;1.96;67.19;97695.91;109160;1255;44803;-81
2023/02/11 09:02:17;;;;;;;18.60;12.80;;;;;;;1.99;67.29;97704.55;109172;1266;23696;-82
2023/02/11 09:04:49;;;;;;;19.90;11.80;;;;;;;1.98;67.41;97707.80;109161;1270;22532;-83
2023/02/11 09:07:21;;;;;;;18.30;10.20;;;;;;;2.12;67.40;97710.70;109159;1267;22558;-82
2023/02/11 09:09:53;;;;;;;19.60;11.90;;;;;;;2.06;66.63;97709.52;109184;1266;66709;-83
2023/02/11 09:12:25;;;;;;;21.60;13.10;;;;;;;2.14;67.23;97714.44;109159;1272;22542;-82
2023/02/11 09:14:56;;;;;;;20.80;12.00;;;;;;;2.35;66.54;97712.44;109244;1266;22636;-83
2023/02/11 09:17:29;;;;;;;14.30;8.70;;;;;;;2.31;66.03;97716.02;109093;1273;22514;-83
2023/02/11 09:20:03;;;;;;;18.10;12.00;;;;;;;2.04;65.50;97711.40;109164;1271;46286;-83
2023/02/11 09:22:35;;;;;;;17.50;10.40;;;;;;;1.93;66.60;97715.70;109333;1273;22517;-82
2023/02/11 09:25:08;;;;;;;20.90;12.90;;;;;;;2.03;66.74;97714.77;109162;1272;24180;-82
2023/02/11 09:27:41;;;;;;;16.60;8.90;;;;;;;2.15;66.76;97715.54;109179;1273;22561;-82
2023/02/11 09:30:14;;;;;;;20.50;13.40;;;;;;;2.13;65.85;97696.85;109133;1273;34785;-82
2023/02/11 09:32:48;;;;;;;19.40;11.10;;;;;;;2.10;65.89;97692.85;109118;1273;23190;-82
2023/02/11 09:35:19;;;;;;;17.30;9.50;;;;;;;2.14;66.08;97690.23;109121;1272;22544;-82
2023/02/11 09:37:53;;;;;;;19.90;11.80;;;;;;;2.21;66.11;97685.60;109107;1273;25441;-82
2023/02/11 09:40:24;;;;;;;20.50;13.30;;;;;;;2.29;66.01;97678.83;109111;1272;39114;-82
2023/02/11 09:43:00;;;;;;;18.20;10.10;;;;;;;2.32;65.74;97682.65;109081;1269;22556;-81
2023/02/11 09:45:33;;;;;;;15.20;9.30;;;;;;;2.26;65.33;97686.35;109057;1273;22578;-82
2023/02/11 09:48:13;;;;;;;16.20;10.80;;;;;;;2.25;65.17;97683.40;109020;1272;48655;-81
2023/02/11 09:50:50;;;;;;;17.90;11.60;;;;;;;2.23;64.89;97674.50;109112;1273;22557;-81
2023/02/11 09:53:26;;;;;;;15.60;9.20;;;;;;;2.25;65.35;97672.89;109103;1273;22645;-81
2023/02/11 09:56:00;;;;;;;18.40;13.00;;;;;;;2.44;64.83;97661.61;109131;1269;22532;-82
2023/02/11 09:58:34;;;;;;;16.20;9.40;;;;;;;2.65;65.09;97664.55;109051;1269;50110;-81
2023/02/11 10:01:20;;;;;;;17.20;9.40;;;;;;;2.86;63.91;97674.70;109144;1270;25349;-81
2023/02/11 10:04:01;;;;;;;15.10;9.30;;;;;;;3.02;62.46;97673.48;109082;1273;22552;-81
2023/02/11 10:06:45;;;;;;;15.90;9.30;;;;;;;3.19;62.16;97667.23;109100;1266;22579;-81
2023/02/11 10:09:43;;;;;;;14.50;9.90;;;;;;;3.45;60.62;97657.81;109098;1273;37394;-81
2023/02/11 10:12:37;;;;;;;15.90;8.60;;;;;;;3.49;59.96;97654.84;109085;1270;22561;-81
2023/02/11 10:15:30;;;;;;;14.60;8.50;;;;;;;3.60;59.89;97658.85;109097;1272;22640;-81
2023/02/11 10:18:20;;;;;;;16.20;10.00;;;;;;;3.64;59.55;97651.44;109091;1273;22534;-81
2023/02/11 10:21:07;;;;;;;16.90;9.40;;;;;;;3.64;59.46;97650.96;109109;1272;22527;-80
2023/02/11 10:23:42;;;;;;;16.30;10.40;;;;;;;3.60;59.39;97655.61;109079;1272;22632;-81
2023/02/11 10:26:17;;;;;;;20.40;10.90;;;;;;;3.58;59.50;97659.55;109169;1273;23024;-81
2023/02/11 10:28:52;;;;;;;17.10;11.10;;;;;;;3.73;60.07;97663.71;109122;1272;44486;-80
2023/02/11 10:31:37;;;;;;;14.50;8.40;;;;;;;3.82;58.97;97645.48;109187;1250;22533;-80
2023/02/11 10:34:16;;;;;;;15.20;8.60;;;;;;;3.63;58.96;97648.95;109178;1269;22542;-82
2023/02/11 10:36:48;;;;;;;14.90;8.00;;;;;;;3.65;59.32;97643.45;109354;1269;24241;-81
2023/02/11 10:39:21;;;;;;;16.10;9.90;;;;;;;3.66;58.94;97632.08;109161;1272;47199;-81
2023/02/11 10:41:58;;;;;;;16.20;9.30;;;;;;;3.47;58.77;97613.89;109220;1266;22623;-81
2023/02/11 10:44:33;;;;;;;15.30;9.70;;;;;;;3.35;59.62;97618.85;109294;1269;24433;-81
2023/02/11 10:47:12;;;;;;;16.70;8.70;;;;;;;3.45;59.63;97608.09;109228;1268;22555;-81
2023/02/11 10:49:45;;;;;;;14.00;9.60;;;;;;;3.42;59.28;97596.09;109126;1269;33844;-80
2023/02/11 10:52:30;;;;;;;19.20;10.40;;;;;;;3.38;59.27;97597.50;109072;1269;26005;-80
2023/02/11 10:55:05;;;;;;;18.80;10.40;;;;;;;3.29;59.60;97590.98;109129;1269;22534;-80
2023/02/11 10:57:41;;;;;;;18.80;12.60;;;;;;;3.16;60.10;97581.38;109150;1266;23856;-81
2023/02/11 11:00:35;;;;;;;15.20;10.00;;;;;;;3.03;60.65;97572.20;109094;1269;34773;-81
2023/02/11 11:03:17;;;;;;;16.30;10.10;;;;;;;2.97;61.14;97570.58;109107;1273;23066;-80
2023/02/11 11:05:52;;;;;;;17.70;9.60;;;;;;;3.01;61.50;97567.53;109035;1272;22549;-80
2023/02/11 11:08:37;;;;;;;19.10;9.60;;;;;;;2.97;61.25;97569.63;109079;1254;32048;-80
2023/02/11 11:11:15;;;;;;;15.30;8.50;;;;;;;2.95;61.33;97562.86;109051;1266;25476;-80
2023/02/11 11:13:59;;;;;;;19.00;11.10;;;;;;;3.00;61.41;97562.25;109069;1266;22592;-80
2023/02/11 11:16:32;;;;;;;17.80;10.00;;;;;;;3.06;61.46;97570.33;109075;1266;25959;-80
2023/02/11 11:19:23;;;;;;;16.30;10.00;;;;;;;3.10;61.25;97555.66;109102;1271;40689;-80
2023/02/11 11:22:00;;;;;;;16.50;9.80;;;;;;;3.09;60.74;97546.73;109166;1266;22555;-80
2023/02/11 11:24:41;;;;;;;18.90;12.00;;;;;;;3.12;60.81;97536.46;109075;1272;25450;-80
2023/02/11 11:27:21;;;;;;;18.50;11.00;;;;;;;3.22;60.79;97537.27;109115;1266;22502;-81
2023/02/11 11:29:55;;;;;;;14.80;9.10;;;;;;;3.30;60.67;97525.46;109117;1266;26101;-80
2023/02/11 11:32:35;;;;;;;18.80;12.00;;;;;;;3.37;60.94;97521.30;109110;1269;22482;-80
2023/02/11 11:35:22;;;;;;;19.90;13.60;;;;;;;3.60;61.12;97506.01;109104;1266;22582;-80
2023/02/11 11:37:58;;;;;;;14.10;8.80;;;;;;;3.76;60.84;97507.91;109058;1266;22526;-80
2023/02/11 11:40:32;;;;;;;21.10;11.80;;;;;;;3.90;60.40;97501.44;109073;1270;24266;-79
2023/02/11 11:43:17;;;;;;;15.80;11.10;;;;;;;4.02;60.07;97493.89;109126;1273;22585;-81
2023/02/11 11:46:01;;;;;;;18.80;13.40;;;;;;;4.11;60.15;97480.42;109042;1273;22528;-81
2023/02/11 11:48:37;;;;;;;20.40;13.10;;;;;;;4.16;60.62;97481.20;109058;1270;22543;-80
2023/02/11 11:51:13;;;;;;;18.60;12.70;;;;;;;4.27;60.89;97488.79;109088;1266;22524;-80
2023/02/11 11:53:51;;;;;;;20.30;13.40;;;;;;;4.42;60.55;97490.91;109114;1269;22630;-79
2023/02/11 11:56:24;;;;;;;21.70;14.70;;;;;;;4.41;59.54;97494.95;109122;1272;22561;-80